Terminal Aerodrome Forecast
Issued by NWS

Home | Current Version | Previous Version | Text Only | Print | Product List | Glossary On
Versions: 1 2 3 4 5 6 7 8 9 10 11 12 13 14 15
000
FTUS44 KOHX 302044 AAA
TAFCKV
TAF AMD
KCKV 302044Z 3021/3118 VRB05KT P6SM VCTS BKN050CB
     FM310000 VRB04KT P6SM SKC
     FM310900 02002KT 4SM BR BCFG SKC
     FM311300 VRB04KT P6SM SKC=

USA.gov is the U.S. government's official web portal to all federal, state and local government web resources and services.